Cedar Rapids, IA (52401)

7:10 AM CDT on July 25, 2016 (GMT -0500)
Downtown Cedar Rapids - KCRG | | Change Station

Elev 768 ft 41.98 °N, 91.66 °W | Updated 1 minute ago

Clear
Clear
69.8 °F
Feels Like 69.8 °F
N
2.9
Wind Variable Wind from WNW
Gusts 6.0 mph

Today
High -- | Low -- °F
--% Chance of Precip.
Yesterday
High -- | Low -- °F
Precip. -- in
Pressure 30.04 in
Visibility 10.0 miles
Clouds Clear
Dew Point 65 °F
Humidity 85%
Rainfall 0.00 in
Snow Depth Not available.
5:53 AM 8:31 PM
Waning Gibbous, 66% visible
METAR KCID 251152Z 32006KT 10SM CLR 19/19 A3005 RMK AO2 SLP171 T01890189 10206 20172 53009
Pressure 30.04 in
Visibility 10.0 miles
Clouds Clear
Dew Point 65 °F
Humidity 85%
Rainfall 0.00 in
Snow Depth Not available.
5:53 AM 8:31 PM
Waning Gibbous, 66% visible
METAR KCID 251152Z 32006KT 10SM CLR 19/19 A3005 RMK AO2 SLP171 T01890189 10206 20172 53009

10-Day Weather Forecast

Almanac

Astronomy

Jul. 25, 2016 Rise Set
Actual Time
Civil Twilight
Nautical Twilight
Astronomical Twilight
Moon
Length of Visible Light
Length of Day
Tomorrow will be .
, % of the Moon is Illuminated

Today's Extremes

State Highs State Lows

Community

WunderPhotos

Upload Photos

1,927,294 photos uploaded!

WunderBlog® & News

Nearby

Air Quality

  Air Quality AQ Index Pollutant
Not available.

Snow Depth

Station Depth Elevation

Earthquake Activity

City Distance Mag. Time & Date
Minimum magnitude displayed is 2.5.

Coastal Water Temperatures

Place Temperature

Stations

Nearby Weather Stations

Station Location Temp. Windchill Dew Point Humidity Wind Precip. Elev Updated Type
                   

Watches & Warnings

There are currently no watches in effect.